sensor_id;sensor_type;location;lat;lon;timestamp;pressure;altitude;pressure_sealevel;temperature;humidity
12624;BME280;6377;42.836;23.998;2023-05-28T00:00:27;95588.66;;;16.10;100.00
12624;BME280;6377;42.836;23.998;2023-05-28T00:02:55;95588.41;;;16.18;100.00
12624;BME280;6377;42.836;23.998;2023-05-28T00:05:23;95553.56;;;16.13;100.00
12624;BME280;6377;42.836;23.998;2023-05-28T00:07:50;95588.88;;;16.40;100.00
12624;BME280;6377;42.836;23.998;2023-05-28T00:10:17;95578.16;;;16.15;100.00
12624;BME280;6377;42.836;23.998;2023-05-28T00:12:45;95581.22;;;15.87;100.00
12624;BME280;6377;42.836;23.998;2023-05-28T00:15:13;95588.09;;;16.01;100.00
12624;BME280;6377;42.836;23.998;2023-05-28T00:17:41;95581.31;;;16.05;100.00
12624;BME280;6377;42.836;23.998;2023-05-28T00:20:08;95573.34;;;15.99;100.00
12624;BME280;6377;42.836;23.998;2023-05-28T00:22:36;95582.94;;;16.06;100.00
12624;BME280;6377;42.836;23.998;2023-05-28T00:25:04;95578.84;;;16.04;100.00
12624;BME280;6377;42.836;23.998;2023-05-28T00:27:32;95579.22;;;16.14;100.00
12624;BME280;6377;42.836;23.998;2023-05-28T00:29:59;95532.69;;;16.03;100.00
12624;BME280;6377;42.836;23.998;2023-05-28T00:32:28;95568.25;;;16.29;100.00
12624;BME280;6377;42.836;23.998;2023-05-28T00:34:55;95569.22;;;16.34;100.00
12624;BME280;6377;42.836;23.998;2023-05-28T00:37:22;95566.09;;;16.44;100.00
12624;BME280;6377;42.836;23.998;2023-05-28T00:39:49;95564.81;;;16.46;100.00
12624;BME280;6377;42.836;23.998;2023-05-28T00:42:16;95552.31;;;16.47;100.00
12624;BME280;6377;42.836;23.998;2023-05-28T00:44:44;95552.72;;;16.44;100.00
12624;BME280;6377;42.836;23.998;2023-05-28T00:47:11;95544.25;;;16.22;100.00
12624;BME280;6377;42.836;23.998;2023-05-28T00:49:41;95538.00;;;16.03;100.00
12624;BME280;6377;42.836;23.998;2023-05-28T00:52:09;95544.63;;;15.94;100.00
12624;BME280;6377;42.836;23.998;2023-05-28T00:54:37;95532.63;;;15.79;100.00
12624;BME280;6377;42.836;23.998;2023-05-28T00:57:05;95532.28;;;15.68;100.00
12624;BME280;6377;42.836;23.998;2023-05-28T00:59:33;95541.34;;;15.61;100.00
12624;BME280;6377;42.836;23.998;2023-05-28T01:02:01;95543.78;;;15.62;100.00
12624;BME280;6377;42.836;23.998;2023-05-28T01:04:28;95538.63;;;15.67;100.00
12624;BME280;6377;42.836;23.998;2023-05-28T01:07:00;95526.13;;;15.68;100.00
12624;BME280;6377;42.836;23.998;2023-05-28T01:09:28;95536.88;;;15.86;100.00
12624;BME280;6377;42.836;23.998;2023-05-28T01:11:56;95533.59;;;15.91;100.00
12624;BME280;6377;42.836;23.998;2023-05-28T01:14:24;95543.41;;;15.97;100.00
12624;BME280;6377;42.836;23.998;2023-05-28T01:16:51;95537.41;;;16.01;100.00
12624;BME280;6377;42.836;23.998;2023-05-28T01:19:21;95528.47;;;15.89;100.00
12624;BME280;6377;42.836;23.998;2023-05-28T01:21:57;95527.03;;;15.87;100.00
12624;BME280;6377;42.836;23.998;2023-05-28T01:24:29;95530.56;;;15.81;100.00
12624;BME280;6377;42.836;23.998;2023-05-28T01:26:57;95509.34;;;15.61;100.00
12624;BME280;6377;42.836;23.998;2023-05-28T01:29:24;95532.44;;;15.74;100.00
12624;BME280;6377;42.836;23.998;2023-05-28T01:31:52;95512.16;;;15.73;100.00
12624;BME280;6377;42.836;23.998;2023-05-28T01:34:19;95520.69;;;15.88;100.00
12624;BME280;6377;42.836;23.998;2023-05-28T01:36:48;95506.50;;;15.94;100.00
12624;BME280;6377;42.836;23.998;2023-05-28T01:39:18;95511.44;;;15.90;100.00
12624;BME280;6377;42.836;23.998;2023-05-28T01:41:48;95518.72;;;16.08;100.00
12624;BME280;6377;42.836;23.998;2023-05-28T01:44:18;95515.78;;;16.16;100.00
12624;BME280;6377;42.836;23.998;2023-05-28T01:46:46;95518.00;;;16.19;100.00
12624;BME280;6377;42.836;23.998;2023-05-28T01:49:13;95522.03;;;16.28;100.00
12624;BME280;6377;42.836;23.998;2023-05-28T01:51:41;95523.22;;;16.32;100.00
12624;BME280;6377;42.836;23.998;2023-05-28T01:54:08;95522.44;;;16.32;100.00
12624;BME280;6377;42.836;23.998;2023-05-28T01:56:35;95519.25;;;16.41;100.00
12624;BME280;6377;42.836;23.998;2023-05-28T01:59:04;95522.13;;;16.15;100.00
12624;BME280;6377;42.836;23.998;2023-05-28T02:01:32;95505.88;;;15.92;100.00
12624;BME280;6377;42.836;23.998;2023-05-28T02:04:01;95519.63;;;15.89;100.00
12624;BME280;6377;42.836;23.998;2023-05-28T02:06:30;95531.00;;;16.09;100.00
12624;BME280;6377;42.836;23.998;2023-05-28T02:08:58;95531.13;;;16.20;100.00
12624;BME280;6377;42.836;23.998;2023-05-28T02:11:25;95535.88;;;16.18;100.00
12624;BME280;6377;42.836;23.998;2023-05-28T02:13:53;95523.25;;;16.01;100.00
12624;BME280;6377;42.836;23.998;2023-05-28T02:16:21;95529.94;;;16.16;100.00
12624;BME280;6377;42.836;23.998;2023-05-28T02:18:50;95529.69;;;16.18;100.00
12624;BME280;6377;42.836;23.998;2023-05-28T02:21:18;95528.22;;;16.29;100.00
12624;BME280;6377;42.836;23.998;2023-05-28T02:23:47;95537.78;;;16.36;100.00
12624;BME280;6377;42.836;23.998;2023-05-28T02:26:15;95543.50;;;16.40;100.00
12624;BME280;6377;42.836;23.998;2023-05-28T02:28:42;95547.00;;;16.40;100.00
12624;BME280;6377;42.836;23.998;2023-05-28T02:31:10;95534.69;;;16.39;100.00
12624;BME280;6377;42.836;23.998;2023-05-28T02:33:39;95543.66;;;16.45;100.00
12624;BME280;6377;42.836;23.998;2023-05-28T02:36:07;95542.41;;;16.47;100.00
12624;BME280;6377;42.836;23.998;2023-05-28T02:38:37;95540.13;;;16.51;100.00
12624;BME280;6377;42.836;23.998;2023-05-28T02:41:04;95541.63;;;16.47;100.00
12624;BME280;6377;42.836;23.998;2023-05-28T02:43:32;95535.03;;;16.49;100.00
12624;BME280;6377;42.836;23.998;2023-05-28T02:45:59;95546.34;;;16.45;100.00
12624;BME280;6377;42.836;23.998;2023-05-28T02:48:27;95542.06;;;16.44;100.00
12624;BME280;6377;42.836;23.998;2023-05-28T02:50:55;95547.88;;;16.34;100.00
12624;BME280;6377;42.836;23.998;2023-05-28T02:53:23;95541.47;;;16.35;100.00
12624;BME280;6377;42.836;23.998;2023-05-28T02:55:50;95545.53;;;16.44;100.00
12624;BME280;6377;42.836;23.998;2023-05-28T02:58:17;95548.56;;;16.48;100.00
12624;BME280;6377;42.836;23.998;2023-05-28T03:00:44;95546.13;;;16.46;100.00
12624;BME280;6377;42.836;23.998;2023-05-28T03:03:12;95525.53;;;16.29;100.00
12624;BME280;6377;42.836;23.998;2023-05-28T03:05:40;95513.09;;;16.16;100.00
12624;BME280;6377;42.836;23.998;2023-05-28T03:08:09;95547.41;;;16.44;100.00
12624;BME280;6377;42.836;23.998;2023-05-28T03:10:36;95548.56;;;16.48;100.00
12624;BME280;6377;42.836;23.998;2023-05-28T03:13:03;95551.25;;;16.48;100.00
12624;BME280;6377;42.836;23.998;2023-05-28T03:15:31;95553.66;;;16.56;100.00
12624;BME280;6377;42.836;23.998;2023-05-28T03:17:58;95551.41;;;16.53;100.00
12624;BME280;6377;42.836;23.998;2023-05-28T03:20:25;95544.88;;;16.55;100.00
12624;BME280;6377;42.836;23.998;2023-05-28T03:22:55;95555.13;;;16.58;100.00
12624;BME280;6377;42.836;23.998;2023-05-28T03:25:24;95547.91;;;16.59;100.00
12624;BME280;6377;42.836;23.998;2023-05-28T03:27:51;95549.38;;;16.55;100.00
12624;BME280;6377;42.836;23.998;2023-05-28T03:30:19;95537.06;;;16.54;100.00
12624;BME280;6377;42.836;23.998;2023-05-28T03:32:47;95529.34;;;16.39;100.00
12624;BME280;6377;42.836;23.998;2023-05-28T03:35:14;95539.00;;;16.40;100.00
12624;BME280;6377;42.836;23.998;2023-05-28T03:37:41;95530.75;;;16.42;100.00
12624;BME280;6377;42.836;23.998;2023-05-28T03:40:09;95528.97;;;16.36;100.00
12624;BME280;6377;42.836;23.998;2023-05-28T03:42:38;95537.78;;;16.36;100.00
12624;BME280;6377;42.836;23.998;2023-05-28T03:45:06;95532.00;;;16.39;100.00
12624;BME280;6377;42.836;23.998;2023-05-28T03:47:33;95535.91;;;16.43;100.00
12624;BME280;6377;42.836;23.998;2023-05-28T03:50:01;95533.22;;;16.43;100.00
12624;BME280;6377;42.836;23.998;2023-05-28T03:52:29;95530.56;;;16.43;100.00
12624;BME280;6377;42.836;23.998;2023-05-28T03:54:56;95529.19;;;16.34;100.00
12624;BME280;6377;42.836;23.998;2023-05-28T03:57:23;95530.06;;;16.28;100.00
12624;BME280;6377;42.836;23.998;2023-05-28T03:59:52;95532.13;;;16.26;100.00
12624;BME280;6377;42.836;23.998;2023-05-28T04:02:21;95513.81;;;16.05;100.00
12624;BME280;6377;42.836;23.998;2023-05-28T04:04:49;95526.69;;;16.14;100.00
12624;BME280;6377;42.836;23.998;2023-05-28T04:07:17;95530.78;;;16.10;100.00
12624;BME280;6377;42.836;23.998;2023-05-28T04:09:44;95518.09;;;16.06;100.00
12624;BME280;6377;42.836;23.998;2023-05-28T04:12:11;95525.94;;;16.01;100.00
12624;BME280;6377;42.836;23.998;2023-05-28T04:14:39;95517.53;;;15.97;100.00
12624;BME280;6377;42.836;23.998;2023-05-28T04:17:09;95530.69;;;15.92;100.00
12624;BME280;6377;42.836;23.998;2023-05-28T04:19:38;95529.25;;;15.96;100.00
12624;BME280;6377;42.836;23.998;2023-05-28T04:22:06;95538.66;;;15.99;100.00
12624;BME280;6377;42.836;23.998;2023-05-28T04:24:33;95536.59;;;16.01;100.00
12624;BME280;6377;42.836;23.998;2023-05-28T04:27:01;95497.97;;;15.79;100.00
12624;BME280;6377;42.836;23.998;2023-05-28T04:29:28;95534.88;;;16.13;100.00
12624;BME280;6377;42.836;23.998;2023-05-28T04:31:56;95531.13;;;16.20;100.00
12624;BME280;6377;42.836;23.998;2023-05-28T04:34:25;95539.31;;;16.25;100.00
12624;BME280;6377;42.836;23.998;2023-05-28T04:36:52;95520.09;;;16.17;100.00
12624;BME280;6377;42.836;23.998;2023-05-28T04:39:22;95547.53;;;16.24;100.00
12624;BME280;6377;42.836;23.998;2023-05-28T04:41:49;95432.47;;;15.58;100.00
12624;BME280;6377;42.836;23.998;2023-05-28T04:44:19;95546.28;;;15.95;100.00
12624;BME280;6377;42.836;23.998;2023-05-28T04:46:46;95541.50;;;16.04;100.00
12624;BME280;6377;42.836;23.998;2023-05-28T04:49:13;95544.56;;;16.07;100.00
12624;BME280;6377;42.836;23.998;2023-05-28T04:51:42;95555.19;;;16.14;100.00
12624;BME280;6377;42.836;23.998;2023-05-28T04:54:09;95550.28;;;16.11;100.00
12624;BME280;6377;42.836;23.998;2023-05-28T04:56:36;95548.44;;;16.11;100.00
12624;BME280;6377;42.836;23.998;2023-05-28T04:59:04;95515.41;;;15.75;100.00
12624;BME280;6377;42.836;23.998;2023-05-28T05:01:34;95552.31;;;15.84;100.00
12624;BME280;6377;42.836;23.998;2023-05-28T05:04:01;95551.31;;;15.79;100.00
12624;BME280;6377;42.836;23.998;2023-05-28T05:06:29;95550.47;;;15.85;100.00
12624;BME280;6377;42.836;23.998;2023-05-28T05:08:57;95545.53;;;15.82;100.00
12624;BME280;6377;42.836;23.998;2023-05-28T05:11:24;95541.66;;;15.78;100.00
12624;BME280;6377;42.836;23.998;2023-05-28T05:13:51;95544.97;;;15.73;100.00
12624;BME280;6377;42.836;23.998;2023-05-28T05:16:21;95546.81;;;15.73;100.00
12624;BME280;6377;42.836;23.998;2023-05-28T05:18:49;95539.28;;;15.63;100.00
12624;BME280;6377;42.836;23.998;2023-05-28T05:21:16;95541.53;;;15.59;100.00
12624;BME280;6377;42.836;23.998;2023-05-28T05:23:43;95550.59;;;15.52;100.00
12624;BME280;6377;42.836;23.998;2023-05-28T05:26:12;95551.00;;;15.55;100.00
12624;BME280;6377;42.836;23.998;2023-05-28T05:28:42;95548.97;;;15.51;100.00
12624;BME280;6377;42.836;23.998;2023-05-28T05:31:09;95552.25;;;15.46;100.00
12624;BME280;6377;42.836;23.998;2023-05-28T05:33:37;95551.44;;;15.39;100.00
12624;BME280;6377;42.836;23.998;2023-05-28T05:36:05;95552.69;;;15.37;100.00
12624;BME280;6377;42.836;23.998;2023-05-28T05:38:33;95542.66;;;15.32;100.00
12624;BME280;6377;42.836;23.998;2023-05-28T05:41:01;95561.31;;;15.32;100.00
12624;BME280;6377;42.836;23.998;2023-05-28T05:43:29;95560.28;;;15.27;100.00
12624;BME280;6377;42.836;23.998;2023-05-28T05:45:56;95561.53;;;15.24;100.00
12624;BME280;6377;42.836;23.998;2023-05-28T05:48:25;95514.47;;;14.98;100.00
12624;BME280;6377;42.836;23.998;2023-05-28T05:50:53;95569.09;;;15.27;100.00
12624;BME280;6377;42.836;23.998;2023-05-28T05:53:21;95562.34;;;15.25;100.00
12624;BME280;6377;42.836;23.998;2023-05-28T05:55:49;95568.06;;;15.35;100.00
12624;BME280;6377;42.836;23.998;2023-05-28T05:58:16;95565.00;;;15.25;100.00
12624;BME280;6377;42.836;23.998;2023-05-28T06:00:44;95566.44;;;15.27;100.00
12624;BME280;6377;42.836;23.998;2023-05-28T06:03:13;95577.31;;;15.32;100.00
12624;BME280;6377;42.836;23.998;2023-05-28T06:05:40;95562.53;;;15.36;100.00
12624;BME280;6377;42.836;23.998;2023-05-28T06:08:08;95561.09;;;15.40;100.00
12624;BME280;6377;42.836;23.998;2023-05-28T06:10:35;95535.31;;;15.21;100.00
12624;BME280;6377;42.836;23.998;2023-05-28T06:13:02;95576.22;;;15.46;100.00
12624;BME280;6377;42.836;23.998;2023-05-28T06:15:30;95568.03;;;15.54;100.00
12624;BME280;6377;42.836;23.998;2023-05-28T06:17:59;95571.94;;;15.52;100.00
12624;BME280;6377;42.836;23.998;2023-05-28T06:20:26;95573.19;;;15.49;100.00
12624;BME280;6377;42.836;23.998;2023-05-28T06:22:54;95558.00;;;15.43;100.00
12624;BME280;6377;42.836;23.998;2023-05-28T06:25:21;95573.34;;;15.54;100.00
12624;BME280;6377;42.836;23.998;2023-05-28T06:27:48;95568.81;;;15.61;100.00
12624;BME280;6377;42.836;23.998;2023-05-28T06:30:17;95571.84;;;15.72;100.00
12624;BME280;6377;42.836;23.998;2023-05-28T06:32:44;95575.50;;;15.77;100.00
12624;BME280;6377;42.836;23.998;2023-05-28T06:35:13;95572.25;;;15.75;100.00
12624;BME280;6377;42.836;23.998;2023-05-28T06:37:40;95574.88;;;15.82;100.00
12624;BME280;6377;42.836;23.998;2023-05-28T06:40:08;95574.47;;;15.85;100.00
12624;BME280;6377;42.836;23.998;2023-05-28T06:42:36;95562.75;;;15.86;100.00
12624;BME280;6377;42.836;23.998;2023-05-28T06:45:03;95583.59;;;16.02;100.00
12624;BME280;6377;42.836;23.998;2023-05-28T06:47:31;95581.31;;;16.05;100.00
12624;BME280;6377;42.836;23.998;2023-05-28T06:49:58;95584.97;;;16.11;100.00
12624;BME280;6377;42.836;23.998;2023-05-28T06:52:27;95584.78;;;16.06;100.00
12624;BME280;6377;42.836;23.998;2023-05-28T06:54:54;95536.28;;;15.84;100.00
12624;BME280;6377;42.836;23.998;2023-05-28T06:57:21;95580.84;;;16.15;100.00
12624;BME280;6377;42.836;23.998;2023-05-28T06:59:49;95594.16;;;16.15;100.00
12624;BME280;6377;42.836;23.998;2023-05-28T07:02:19;95592.91;;;16.17;100.00
12624;BME280;6377;42.836;23.998;2023-05-28T07:04:46;95586.59;;;16.12;100.00
12624;BME280;6377;42.836;23.998;2023-05-28T07:07:13;95581.75;;;16.02;100.00
12624;BME280;6377;42.836;23.998;2023-05-28T07:09:42;95569.44;;;16.01;100.00
12624;BME280;6377;42.836;23.998;2023-05-28T07:12:09;95579.16;;;16.20;100.00
12624;BME280;6377;42.836;23.998;2023-05-28T07:14:36;95562.22;;;16.08;100.00
12624;BME280;6377;42.836;23.998;2023-05-28T07:17:04;95536.59;;;16.01;100.00
12624;BME280;6377;42.836;23.998;2023-05-28T07:19:31;95580.38;;;16.24;100.00
12624;BME280;6377;42.836;23.998;2023-05-28T07:21:58;95582.00;;;16.25;100.00
12624;BME280;6377;42.836;23.998;2023-05-28T07:24:25;95586.38;;;16.20;100.00
12624;BME280;6377;42.836;23.998;2023-05-28T07:26:54;95578.94;;;16.22;100.00
12624;BME280;6377;42.836;23.998;2023-05-28T07:29:21;95573.38;;;16.23;100.00
12624;BME280;6377;42.836;23.998;2023-05-28T07:31:48;95578.91;;;16.29;100.00
12624;BME280;6377;42.836;23.998;2023-05-28T07:34:15;95581.34;;;16.30;100.00
12624;BME280;6377;42.836;23.998;2023-05-28T07:36:43;95578.47;;;16.32;100.00
12624;BME280;6377;42.836;23.998;2023-05-28T07:39:10;95583.84;;;16.25;100.00
12624;BME280;6377;42.836;23.998;2023-05-28T07:41:37;95560.19;;;16.04;100.00
12624;BME280;6377;42.836;23.998;2023-05-28T07:44:06;95582.63;;;16.21;100.00
12624;BME280;6377;42.836;23.998;2023-05-28T07:46:33;95586.00;;;16.10;100.00
12624;BME280;6377;42.836;23.998;2023-05-28T07:49:00;95586.66;;;16.05;100.00
12624;BME280;6377;42.836;23.998;2023-05-28T07:51:27;95577.84;;;16.05;100.00
12624;BME280;6377;42.836;23.998;2023-05-28T07:53:55;95573.53;;;16.04;100.00
12624;BME280;6377;42.836;23.998;2023-05-28T07:56:22;95558.16;;;15.99;100.00
12624;BME280;6377;42.836;23.998;2023-05-28T07:58:49;95580.41;;;16.18;100.00
12624;BME280;6377;42.836;23.998;2023-05-28T08:01:18;95568.72;;;16.19;100.00
12624;BME280;6377;42.836;23.998;2023-05-28T08:03:46;95577.56;;;16.13;100.00
12624;BME280;6377;42.836;23.998;2023-05-28T08:06:16;95581.66;;;16.15;100.00
12624;BME280;6377;42.836;23.998;2023-05-28T08:08:44;95576.28;;;16.22;100.00
12624;BME280;6377;42.836;23.998;2023-05-28T08:11:11;95530.44;;;16.00;100.00
12624;BME280;6377;42.836;23.998;2023-05-28T08:13:39;95568.25;;;16.29;100.00
12624;BME280;6377;42.836;23.998;2023-05-28T08:16:06;95569.25;;;16.27;100.00
12624;BME280;6377;42.836;23.998;2023-05-28T08:18:35;95573.94;;;16.32;100.00
12624;BME280;6377;42.836;23.998;2023-05-28T08:21:02;95571.91;;;16.34;100.00
12624;BME280;6377;42.836;23.998;2023-05-28T08:23:29;95572.47;;;16.36;100.00
12624;BME280;6377;42.836;23.998;2023-05-28T08:26:00;95569.00;;;16.36;100.00
12624;BME280;6377;42.836;23.998;2023-05-28T08:28:28;95567.94;;;16.43;100.00
12624;BME280;6377;42.836;23.998;2023-05-28T08:30:55;95567.31;;;16.41;100.00
12624;BME280;6377;42.836;23.998;2023-05-28T08:33:22;95566.31;;;16.36;100.00
12624;BME280;6377;42.836;23.998;2023-05-28T08:35:51;95572.09;;;16.33;100.00
12624;BME280;6377;42.836;23.998;2023-05-28T08:38:18;95566.19;;;16.24;100.00
12624;BME280;6377;42.836;23.998;2023-05-28T08:40:49;95570.34;;;16.20;100.00
12624;BME280;6377;42.836;23.998;2023-05-28T08:43:17;95524.41;;;15.80;100.00
12624;BME280;6377;42.836;23.998;2023-05-28T08:45:44;95561.41;;;16.08;100.00
12624;BME280;6377;42.836;23.998;2023-05-28T08:48:11;95562.84;;;16.04;100.00
12624;BME280;6377;42.836;23.998;2023-05-28T08:50:42;95552.72;;;15.81;100.00
12624;BME280;6377;42.836;23.998;2023-05-28T08:53:16;95560.91;;;15.80;100.00
12624;BME280;6377;42.836;23.998;2023-05-28T08:55:46;95568.31;;;15.78;100.00
12624;BME280;6377;42.836;23.998;2023-05-28T08:58:13;95570.19;;;15.70;100.00
12624;BME280;6377;42.836;23.998;2023-05-28T09:00:41;95571.88;;;15.65;100.00
12624;BME280;6377;42.836;23.998;2023-05-28T09:03:09;95566.34;;;15.66;100.00
12624;BME280;6377;42.836;23.998;2023-05-28T09:05:36;95574.34;;;15.66;100.00
12624;BME280;6377;42.836;23.998;2023-05-28T09:08:06;95570.84;;;15.66;100.00
12624;BME280;6377;42.836;23.998;2023-05-28T09:10:36;95570.41;;;15.69;100.00
12624;BME280;6377;42.836;23.998;2023-05-28T09:13:03;95565.38;;;15.41;100.00
12624;BME280;6377;42.836;23.998;2023-05-28T09:15:31;95542.03;;;15.37;100.00
12624;BME280;6377;42.836;23.998;2023-05-28T09:17:59;95503.97;;;15.17;100.00
12624;BME280;6377;42.836;23.998;2023-05-28T09:20:27;95537.50;;;15.44;100.00
12624;BME280;6377;42.836;23.998;2023-05-28T09:22:58;95576.16;;;15.73;100.00
12624;BME280;6377;42.836;23.998;2023-05-28T09:25:26;95577.59;;;15.68;100.00
12624;BME280;6377;42.836;23.998;2023-05-28T09:27:56;95570.69;;;15.54;100.00
12624;BME280;6377;42.836;23.998;2023-05-28T09:30:25;95570.28;;;15.57;100.00
12624;BME280;6377;42.836;23.998;2023-05-28T09:33:01;95584.56;;;15.69;100.00
12624;BME280;6377;42.836;23.998;2023-05-28T09:35:29;95585.34;;;15.77;100.00
12624;BME280;6377;42.836;23.998;2023-05-28T09:38:00;95588.00;;;15.83;100.00
12624;BME280;6377;42.836;23.998;2023-05-28T09:40:28;95580.56;;;15.92;100.00
12624;BME280;6377;42.836;23.998;2023-05-28T09:42:56;95571.38;;;15.88;100.00
12624;BME280;6377;42.836;23.998;2023-05-28T09:45:24;95569.03;;;15.98;100.00
12624;BME280;6377;42.836;23.998;2023-05-28T09:47:52;95525.16;;;15.94;100.00
12624;BME280;6377;42.836;23.998;2023-05-28T09:50:19;95575.25;;;16.23;100.00
12624;BME280;6377;42.836;23.998;2023-05-28T09:52:47;95568.00;;;16.30;100.00
12624;BME280;6377;42.836;23.998;2023-05-28T09:55:15;95564.28;;;16.38;100.00
12624;BME280;6377;42.836;23.998;2023-05-28T09:57:46;95564.09;;;16.33;100.00
12624;BME280;6377;42.836;23.998;2023-05-28T10:00:22;95565.50;;;16.35;100.00
12624;BME280;6377;42.836;23.998;2023-05-28T10:03:00;95559.09;;;16.43;100.00
12624;BME280;6377;42.836;23.998;2023-05-28T10:05:31;95544.38;;;16.34;100.00
12624;BME280;6377;42.836;23.998;2023-05-28T10:08:00;95567.03;;;16.56;100.00
12624;BME280;6377;42.836;23.998;2023-05-28T10:10:29;95567.13;;;16.67;100.00
12624;BME280;6377;42.836;23.998;2023-05-28T10:12:57;95563.88;;;16.65;100.00
12624;BME280;6377;42.836;23.998;2023-05-28T10:15:26;95507.59;;;16.36;100.00
12624;BME280;6377;42.836;23.998;2023-05-28T10:17:54;95564.59;;;16.79;100.00
12624;BME280;6377;42.836;23.998;2023-05-28T10:20:22;95572.81;;;16.77;100.00
12624;BME280;6377;42.836;23.998;2023-05-28T10:22:49;95554.22;;;16.64;100.00
12624;BME280;6377;42.836;23.998;2023-05-28T10:25:17;95562.88;;;16.60;100.00
12624;BME280;6377;42.836;23.998;2023-05-28T10:27:46;95568.81;;;16.62;100.00
12624;BME280;6377;42.836;23.998;2023-05-28T10:30:34;95557.88;;;16.70;100.00
12624;BME280;6377;42.836;23.998;2023-05-28T10:33:03;95544.44;;;16.58;100.00
12624;BME280;6377;42.836;23.998;2023-05-28T10:35:32;95556.44;;;16.67;100.00
12624;BME280;6377;42.836;23.998;2023-05-28T10:38:05;95559.84;;;16.81;100.00
12624;BME280;6377;42.836;23.998;2023-05-28T10:40:33;95560.22;;;16.85;100.00
12624;BME280;6377;42.836;23.998;2023-05-28T10:43:01;95558.72;;;16.89;100.00
12624;BME280;6377;42.836;23.998;2023-05-28T10:45:37;95550.31;;;16.85;100.00
12624;BME280;6377;42.836;23.998;2023-05-28T10:48:06;95550.28;;;16.92;100.00
12624;BME280;6377;42.836;23.998;2023-05-28T10:50:57;95550.06;;;16.93;100.00
12624;BME280;6377;42.836;23.998;2023-05-28T10:53:26;95552.94;;;16.92;100.00
12624;BME280;6377;42.836;23.998;2023-05-28T10:55:54;95551.09;;;16.92;100.00
12624;BME280;6377;42.836;23.998;2023-05-28T10:58:26;95522.22;;;16.83;100.00
12624;BME280;6377;42.836;23.998;2023-05-28T11:01:00;95544.75;;;17.11;100.00
12624;BME280;6377;42.836;23.998;2023-05-28T11:03:39;95539.31;;;17.18;100.00
12624;BME280;6377;42.836;23.998;2023-05-28T11:06:07;95535.81;;;17.35;100.00
12624;BME280;6377;42.836;23.998;2023-05-28T11:08:44;95537.25;;;17.56;100.00
12624;BME280;6377;42.836;23.998;2023-05-28T11:11:14;95534.50;;;17.63;100.00
12624;BME280;6377;42.836;23.998;2023-05-28T11:13:42;95521.88;;;17.52;100.00
12624;BME280;6377;42.836;23.998;2023-05-28T11:16:12;95529.38;;;17.61;100.00
12624;BME280;6377;42.836;23.998;2023-05-28T11:18:40;95526.09;;;17.59;100.00
12624;BME280;6377;42.836;23.998;2023-05-28T11:21:27;95520.09;;;17.64;100.00
12624;BME280;6377;42.836;23.998;2023-05-28T11:23:59;95522.59;;;17.77;100.00
12624;BME280;6377;42.836;23.998;2023-05-28T11:26:26;95513.84;;;17.70;100.00
12624;BME280;6377;42.836;23.998;2023-05-28T11:28:54;95530.97;;;17.80;100.00
12624;BME280;6377;42.836;23.998;2023-05-28T11:31:23;95520.44;;;17.67;100.00
12624;BME280;6377;42.836;23.998;2023-05-28T11:33:50;95525.13;;;17.72;100.00
12624;BME280;6377;42.836;23.998;2023-05-28T11:36:18;95520.16;;;17.75;100.00
12624;BME280;6377;42.836;23.998;2023-05-28T11:38:46;95522.38;;;17.78;100.00
12624;BME280;6377;42.836;23.998;2023-05-28T11:41:13;95524.72;;;17.86;100.00
12624;BME280;6377;42.836;23.998;2023-05-28T11:43:41;95487.91;;;17.52;100.00
12624;BME280;6377;42.836;23.998;2023-05-28T11:46:08;95519.09;;;17.76;100.00
12624;BME280;6377;42.836;23.998;2023-05-28T11:48:37;95524.47;;;17.88;100.00
12624;BME280;6377;42.836;23.998;2023-05-28T11:51:05;95526.63;;;17.98;100.00
12624;BME280;6377;42.836;23.998;2023-05-28T11:53:39;95529.09;;;17.99;100.00
12624;BME280;6377;42.836;23.998;2023-05-28T11:56:08;95526.09;;;18.07;100.00
12624;BME280;6377;42.836;23.998;2023-05-28T11:58:35;95523.69;;;17.87;100.00
12624;BME280;6377;42.836;23.998;2023-05-28T12:01:06;95531.06;;;18.04;100.00
12624;BME280;6377;42.836;23.998;2023-05-28T12:03:34;95518.56;;;17.86;100.00
12624;BME280;6377;42.836;23.998;2023-05-28T12:06:03;95536.78;;;17.77;100.00
12624;BME280;6377;42.836;23.998;2023-05-28T12:08:30;95525.06;;;17.78;100.00
12624;BME280;6377;42.836;23.998;2023-05-28T12:11:01;95528.75;;;17.77;100.00
12624;BME280;6377;42.836;23.998;2023-05-28T12:13:33;95534.06;;;17.66;100.00
12624;BME280;6377;42.836;23.998;2023-05-28T12:16:07;95537.31;;;17.68;100.00
12624;BME280;6377;42.836;23.998;2023-05-28T12:18:39;95534.72;;;17.61;100.00
12624;BME280;6377;42.836;23.998;2023-05-28T12:21:11;95509.09;;;17.35;100.00
12624;BME280;6377;42.836;23.998;2023-05-28T12:23:39;95522.31;;;17.49;100.00
12624;BME280;6377;42.836;23.998;2023-05-28T12:26:09;95530.78;;;17.64;100.00
12624;BME280;6377;42.836;23.998;2023-05-28T12:28:37;95479.69;;;17.35;100.00
12624;BME280;6377;42.836;23.998;2023-05-28T12:31:06;95528.13;;;17.64;100.00
12624;BME280;6377;42.836;23.998;2023-05-28T12:33:34;95528.78;;;17.59;100.00
12624;BME280;6377;42.836;23.998;2023-05-28T12:36:01;95526.41;;;17.69;100.00
12624;BME280;6377;42.836;23.998;2023-05-28T12:38:29;95532.91;;;17.73;100.00
12624;BME280;6377;42.836;23.998;2023-05-28T12:40:57;95535.84;;;17.72;100.00
12624;BME280;6377;42.836;23.998;2023-05-28T12:43:24;95528.75;;;17.77;100.00
12624;BME280;6377;42.836;23.998;2023-05-28T12:45:52;95521.81;;;17.88;100.00
12624;BME280;6377;42.836;23.998;2023-05-28T12:48:19;95528.09;;;17.93;100.00
12624;BME280;6377;42.836;23.998;2023-05-28T12:50:46;95499.16;;;17.90;100.00
12624;BME280;6377;42.836;23.998;2023-05-28T12:53:13;95515.34;;;17.96;100.00
12624;BME280;6377;42.836;23.998;2023-05-28T12:55:42;95503.31;;;17.86;100.00